Time;durP1;ratioP1;P1;durP2;ratioP2;P2;SDS_P1;SDS_P2;PMS_P1;PMS_P2;Temp;Humidity;BMP_temperature;BMP_pressure;BME280_temperature;BME280_humidity;BME280_pressure;Samples;Min_cycle;Max_cycle;Signal;HPM_P1;HPM_P2
2022/07/21 00:00:04;;;;;;;2.15;1.98;;;;;;;31.12;39.56;97082.91;5091231;28;20025;-27
2022/07/21 00:02:30;;;;;;;2.25;2.05;;;;;;;31.08;39.70;97083.97;5091519;28;20026;-27
2022/07/21 00:04:56;;;;;;;2.22;2.03;;;;;;;31.12;39.88;97080.88;5091300;28;20473;-27
2022/07/21 00:07:21;;;;;;;3.00;2.20;;;;;;;31.16;39.38;97075.63;5089323;28;20035;-28
2022/07/21 00:09:47;;;;;;;2.63;2.40;;;;;;;31.11;40.39;97079.34;5090986;28;20040;-27
2022/07/21 00:12:12;;;;;;;2.75;2.45;;;;;;;31.16;40.11;97078.44;5090832;28;20048;-28
2022/07/21 00:14:38;;;;;;;3.45;2.95;;;;;;;31.20;39.89;97080.91;5091155;28;20027;-28
2022/07/21 00:17:03;;;;;;;3.00;2.80;;;;;;;31.03;41.49;97067.31;5091130;28;20028;-28
2022/07/21 00:19:29;;;;;;;3.03;2.72;;;;;;;31.02;41.45;97072.19;5091211;28;20031;-27
2022/07/21 00:21:54;;;;;;;3.33;3.03;;;;;;;31.14;41.14;97074.72;5090948;28;20020;-29
2022/07/21 00:24:20;;;;;;;3.83;3.03;;;;;;;31.12;41.14;97074.50;5091237;28;20107;-28
2022/07/21 00:26:46;;;;;;;3.45;3.15;;;;;;;31.13;41.09;97076.75;5090977;28;20024;-28
2022/07/21 00:29:11;;;;;;;3.53;2.80;;;;;;;31.11;42.26;97067.41;5091197;28;20042;-28
2022/07/21 00:31:37;;;;;;;3.30;3.00;;;;;;;31.24;41.86;97065.25;5091010;28;20020;-29
2022/07/21 00:34:02;;;;;;;3.65;3.33;;;;;;;31.17;41.94;97065.19;5090866;28;20036;-28
2022/07/21 00:36:28;;;;;;;3.42;3.13;;;;;;;31.06;42.16;97066.97;5091013;28;20024;-28
2022/07/21 00:38:53;;;;;;;3.10;2.90;;;;;;;31.18;42.18;97069.50;5090852;28;20040;-28
2022/07/21 00:41:19;;;;;;;4.18;3.13;;;;;;;31.19;41.60;97065.38;5091031;28;20410;-28
2022/07/21 00:43:44;;;;;;;3.58;3.28;;;;;;;31.19;42.87;97062.59;5090883;28;20032;-28
2022/07/21 00:46:10;;;;;;;3.60;3.10;;;;;;;31.20;43.45;97062.03;5090653;28;20024;-28
2022/07/21 00:48:35;;;;;;;3.53;3.22;;;;;;;31.15;42.78;97056.59;5090950;28;20054;-28
2022/07/21 00:51:01;;;;;;;3.83;3.50;;;;;;;31.07;42.48;97056.50;5093379;28;20030;-28
2022/07/21 00:53:26;;;;;;;3.92;3.63;;;;;;;31.15;42.56;97053.81;5094655;28;20111;-28
2022/07/21 00:55:52;;;;;;;3.63;3.33;;;;;;;31.14;42.18;97055.84;5094658;28;20073;-28
2022/07/21 00:58:17;;;;;;;3.88;3.58;;;;;;;31.02;41.90;97063.03;5094217;28;20534;-29
2022/07/21 01:00:43;;;;;;;4.28;3.88;;;;;;;31.07;42.38;97059.31;5094565;28;20023;-29
2022/07/21 01:03:08;;;;;;;4.18;3.72;;;;;;;31.21;41.23;97065.59;5094330;28;20059;-27
2022/07/21 01:05:34;;;;;;;4.03;3.67;;;;;;;31.20;41.17;97064.09;5094430;28;20103;-28
2022/07/21 01:08:02;;;;;;;3.95;3.65;;;;;;;31.15;41.76;97067.81;5092394;28;20474;-28
2022/07/21 01:10:28;;;;;;;5.07;4.00;;;;;;;31.13;41.22;97065.56;5093862;28;20125;-28
2022/07/21 01:12:54;;;;;;;4.82;4.32;;;;;;;31.06;41.62;97058.56;5094354;28;20024;-28
2022/07/21 01:15:20;;;;;;;4.85;3.90;;;;;;;31.07;41.74;97062.88;5094362;28;20027;-28
2022/07/21 01:17:46;;;;;;;4.25;3.83;;;;;;;31.06;41.58;97061.34;5094330;28;20115;-28
2022/07/21 01:20:16;;;;;;;4.43;4.03;;;;;;;31.21;41.61;97060.75;5094174;28;20027;-28
2022/07/21 01:22:44;;;;;;;4.20;3.85;;;;;;;31.11;41.38;97051.34;5093861;28;20119;-28
2022/07/21 01:25:10;;;;;;;4.75;4.35;;;;;;;31.13;41.86;97054.34;5094029;28;20039;-28
2022/07/21 01:27:36;;;;;;;4.88;4.00;;;;;;;31.17;41.28;97046.31;5093896;28;20479;-28
2022/07/21 01:30:07;;;;;;;4.75;4.28;;;;;;;31.12;41.95;97043.69;5093981;28;20028;-28
2022/07/21 01:32:32;;;;;;;5.50;4.63;;;;;;;31.11;42.41;97042.94;5093952;28;20051;-28
2022/07/21 01:34:57;;;;;;;5.20;4.70;;;;;;;31.13;41.93;97042.38;5093412;28;20070;-28
2022/07/21 01:37:28;;;;;;;6.75;4.90;;;;;;;31.10;42.68;97041.44;5093960;28;20016;-28
2022/07/21 01:42:38;;;;;;;4.97;4.57;;;;;;;31.19;41.56;97035.31;5093819;28;20493;-27
2022/07/21 01:45:04;;;;;;;5.00;4.60;;;;;;;31.19;41.29;97029.72;5093732;28;20028;-28
2022/07/21 01:47:29;;;;;;;5.15;4.57;;;;;;;31.07;42.05;97029.25;5093147;28;20028;-27
2022/07/21 01:49:55;;;;;;;4.75;4.05;;;;;;;31.08;41.61;97030.75;5093514;28;20020;-28
2022/07/21 01:52:21;;;;;;;5.18;4.72;;;;;;;31.17;41.90;97039.97;5093521;28;20107;-28
2022/07/21 01:54:46;;;;;;;4.57;4.22;;;;;;;31.17;41.97;97037.16;5093391;28;20493;-29
2022/07/21 01:57:12;;;;;;;4.30;3.90;;;;;;;31.19;42.25;97040.94;5093376;28;20051;-28
2022/07/21 01:59:37;;;;;;;4.63;4.22;;;;;;;31.26;41.22;97033.88;5092982;28;20032;-27
2022/07/21 02:02:03;;;;;;;4.10;3.80;;;;;;;31.17;41.55;97032.31;5092102;28;20397;-28
2022/07/21 02:04:28;;;;;;;4.47;4.07;;;;;;;31.17;41.00;97034.38;5093400;28;20030;-28
2022/07/21 02:06:54;;;;;;;4.10;3.80;;;;;;;31.17;41.51;97028.75;5091362;28;20683;-28
2022/07/21 02:09:20;;;;;;;4.35;3.97;;;;;;;31.23;41.48;97029.38;5093033;28;20135;-27
2022/07/21 02:11:45;;;;;;;4.10;3.70;;;;;;;31.25;40.70;97021.16;5092991;28;20081;-28
2022/07/21 02:14:11;;;;;;;4.05;3.75;;;;;;;31.17;41.07;97023.91;5093112;28;20120;-28
2022/07/21 02:16:36;;;;;;;4.38;4.07;;;;;;;31.26;40.47;97022.66;5092948;28;20035;-28
2022/07/21 02:19:03;;;;;;;4.15;3.85;;;;;;;31.19;40.85;97009.34;5092949;28;20398;-29
2022/07/21 02:21:28;;;;;;;4.10;3.78;;;;;;;31.25;40.91;97015.56;5092857;28;20032;-28
2022/07/21 02:23:54;;;;;;;4.40;3.80;;;;;;;31.22;40.30;97017.41;5092628;28;20071;-28
2022/07/21 02:26:19;;;;;;;4.00;3.70;;;;;;;31.16;40.73;97019.59;5092740;28;20059;-29
2022/07/21 02:28:45;;;;;;;4.05;3.75;;;;;;;31.22;40.58;97025.06;5092971;28;20023;-28
2022/07/21 02:31:10;;;;;;;4.80;4.35;;;;;;;31.22;41.03;97025.06;5092802;28;20483;-28
2022/07/21 02:33:36;;;;;;;4.03;3.72;;;;;;;31.14;41.18;97015.88;5092597;28;20461;-28
2022/07/21 02:36:02;;;;;;;4.75;3.50;;;;;;;31.12;40.42;97012.88;5092465;28;20148;-28
2022/07/21 02:38:28;;;;;;;4.45;4.07;;;;;;;31.14;40.60;97010.28;5092591;28;20390;-28
2022/07/21 02:40:53;;;;;;;3.70;3.40;;;;;;;31.17;40.33;97014.75;5092611;28;20020;-28
2022/07/21 02:43:19;;;;;;;3.30;3.00;;;;;;;31.21;40.33;97006.75;5092368;28;20024;-29
2022/07/21 02:45:44;;;;;;;3.97;3.67;;;;;;;31.16;40.44;97007.69;5092475;28;20054;-28
2022/07/21 02:48:12;;;;;;;3.25;3.03;;;;;;;31.17;40.32;97015.50;5092023;28;20531;-28
2022/07/21 02:50:42;;;;;;;3.55;3.25;;;;;;;31.06;40.30;97008.13;5092138;28;20077;-28
2022/07/21 02:53:19;;;;;;;3.03;2.83;;;;;;;31.10;40.62;97004.25;5092269;28;20023;-28
2022/07/21 02:55:49;;;;;;;3.60;3.05;;;;;;;31.10;40.22;97004.25;5092467;28;20020;-28
2022/07/21 02:58:17;;;;;;;4.22;3.08;;;;;;;31.12;40.40;97008.03;5092099;28;20012;-28
2022/07/21 03:00:55;;;;;;;3.20;2.90;;;;;;;31.05;39.80;97009.44;5092344;28;20479;-28
2022/07/21 03:03:23;;;;;;;3.38;3.13;;;;;;;31.10;40.10;97001.47;5092431;28;20024;-28
2022/07/21 03:05:49;;;;;;;2.70;2.50;;;;;;;31.08;40.19;97008.34;5092088;28;20073;-28
2022/07/21 03:08:16;;;;;;;2.85;2.65;;;;;;;31.03;40.37;96995.22;5090360;28;20385;-28
2022/07/21 03:10:42;;;;;;;3.63;3.33;;;;;;;31.04;39.78;96996.72;5091405;28;20044;-29
2022/07/21 03:13:08;;;;;;;3.15;2.90;;;;;;;31.11;40.01;96994.56;5091186;28;20027;-28
2022/07/21 03:15:34;;;;;;;3.03;2.75;;;;;;;31.08;39.99;96999.19;5092050;28;20027;-28
2022/07/21 03:18:00;;;;;;;4.47;2.70;;;;;;;31.04;40.01;97002.31;5091911;28;20024;-28
2022/07/21 03:20:27;;;;;;;2.75;2.55;;;;;;;31.06;39.50;96999.72;5091897;28;20671;-28
2022/07/21 03:22:53;;;;;;;3.35;3.13;;;;;;;31.06;39.94;96999.72;5091720;28;20047;-28
2022/07/21 03:25:19;;;;;;;4.00;2.80;;;;;;;31.06;39.83;96998.97;5091638;28;20116;-28
2022/07/21 03:27:46;;;;;;;3.08;2.75;;;;;;;31.03;39.58;97002.91;5091714;28;20036;-28
2022/07/21 03:30:12;;;;;;;2.78;2.58;;;;;;;31.02;40.04;97002.16;5091629;28;20028;-28
2022/07/21 03:32:38;;;;;;;3.15;2.60;;;;;;;31.01;39.85;97002.69;5083700;28;20074;-28
2022/07/21 03:35:05;;;;;;;3.53;2.28;;;;;;;30.96;40.20;96998.72;5073568;28;20429;-28
2022/07/21 03:37:31;;;;;;;3.20;2.90;;;;;;;31.00;39.71;97007.53;5073391;28;20059;-28
2022/07/21 03:39:56;;;;;;;2.83;2.63;;;;;;;30.97;39.42;97005.84;5073427;28;20498;-28
2022/07/21 03:42:22;;;;;;;3.25;2.95;;;;;;;31.00;39.24;97009.59;5073441;28;20033;-28
2022/07/21 03:44:47;;;;;;;2.80;2.60;;;;;;;30.97;39.25;97008.63;5073404;28;20030;-28
2022/07/21 03:47:13;;;;;;;3.03;2.60;;;;;;;30.99;39.29;97008.84;5073211;28;20033;-27
2022/07/21 03:49:39;;;;;;;2.83;2.60;;;;;;;30.96;39.78;97004.34;5073112;28;20055;-28
2022/07/21 03:52:04;;;;;;;2.92;2.65;;;;;;;31.00;39.60;97012.41;5073252;28;20123;-28
2022/07/21 03:54:30;;;;;;;3.83;2.78;;;;;;;30.99;39.09;97010.91;5073039;28;20028;-28
2022/07/21 03:56:55;;;;;;;2.97;2.67;;;;;;;30.93;39.58;97013.09;5072485;28;20358;-28
2022/07/21 03:59:21;;;;;;;3.28;2.90;;;;;;;30.93;39.18;97019.44;5073340;28;20028;-28
2022/07/21 04:01:46;;;;;;;3.45;2.63;;;;;;;30.95;39.43;97022.44;5073101;28;20030;-28
2022/07/21 04:04:12;;;;;;;3.75;2.60;;;;;;;30.96;38.87;97021.16;5073119;28;20024;-28
2022/07/21 04:06:37;;;;;;;3.00;2.67;;;;;;;30.89;39.58;97030.25;5072952;28;20396;-28
2022/07/21 04:09:03;;;;;;;3.13;2.83;;;;;;;30.91;39.10;97032.50;5072849;28;20143;-28
2022/07/21 04:11:30;;;;;;;3.50;3.03;;;;;;;30.90;38.88;97023.34;5072993;28;20066;-28
2022/07/21 04:13:56;;;;;;;5.40;2.97;;;;;;;30.90;39.32;97031.00;5072891;28;20025;-29
2022/07/21 04:16:22;;;;;;;2.97;2.58;;;;;;;30.91;38.80;97030.44;5071428;28;20028;-28
2022/07/21 04:18:47;;;;;;;3.92;3.10;;;;;;;30.88;38.58;97030.81;5072996;28;20024;-29
2022/07/21 04:21:13;;;;;;;3.83;2.70;;;;;;;30.88;38.86;97031.56;5072900;28;20390;-27
2022/07/21 04:23:39;;;;;;;3.10;2.72;;;;;;;30.85;38.99;97032.66;5071116;28;20028;-28
2022/07/21 04:26:04;;;;;;;2.78;2.42;;;;;;;30.86;39.13;97031.34;5075660;28;20032;-28
2022/07/21 04:28:30;;;;;;;3.05;2.75;;;;;;;30.89;38.68;97029.50;5076705;28;20436;-28
2022/07/21 04:30:55;;;;;;;3.72;3.42;;;;;;;30.91;38.29;97033.22;5076829;28;20090;-28
2022/07/21 04:33:21;;;;;;;4.18;2.75;;;;;;;30.92;38.59;97028.38;5075700;28;20028;-28
2022/07/21 04:35:46;;;;;;;3.33;2.63;;;;;;;30.82;38.89;97030.94;5076584;28;20074;-28
2022/07/21 04:38:12;;;;;;;3.35;2.70;;;;;;;30.86;38.40;97034.16;5076574;28;20474;-28
2022/07/21 04:40:38;;;;;;;4.35;2.92;;;;;;;30.81;38.88;97028.69;5076619;28;20020;-28
2022/07/21 04:43:03;;;;;;;3.35;2.50;;;;;;;30.85;38.81;97037.50;5076613;28;20024;-28
2022/07/21 04:45:29;;;;;;;3.63;2.88;;;;;;;30.84;38.46;97031.13;5076485;28;20017;-28
2022/07/21 04:47:55;;;;;;;3.10;2.90;;;;;;;30.81;38.55;97035.03;5076567;28;20112;-29
2022/07/21 04:50:23;;;;;;;4.00;2.65;;;;;;;30.79;38.34;97031.28;5076338;28;20029;-28
2022/07/21 04:53:06;;;;;;;3.83;2.50;;;;;;;30.78;38.61;97033.34;5076376;28;20066;-28
2022/07/21 04:55:49;;;;;;;4.70;3.00;;;;;;;30.83;38.28;97035.25;5075979;28;20054;-28
2022/07/21 04:58:24;;;;;;;4.25;2.90;;;;;;;30.78;38.76;97033.34;5075894;28;20028;-28
2022/07/21 05:00:50;;;;;;;4.78;3.00;;;;;;;30.81;38.71;97037.81;5075648;28;20025;-28
2022/07/21 05:03:15;;;;;;;3.08;2.78;;;;;;;30.76;38.20;97041.53;5075477;28;20082;-28
2022/07/21 05:05:41;;;;;;;3.80;2.75;;;;;;;30.77;38.39;97033.91;5075308;28;20033;-27
2022/07/21 05:08:06;;;;;;;5.20;2.70;;;;;;;30.79;38.60;97040.44;5075226;28;20029;-27
2022/07/21 05:10:32;;;;;;;4.10;3.25;;;;;;;30.77;38.18;97039.50;5075136;28;20053;-28
2022/07/21 05:12:57;;;;;;;4.35;2.85;;;;;;;30.77;38.25;97047.91;5075380;28;20027;-27
2022/07/21 05:15:23;;;;;;;3.65;2.80;;;;;;;30.74;38.23;97041.34;5075613;28;20021;-28
2022/07/21 05:17:48;;;;;;;3.80;2.85;;;;;;;30.75;38.54;97042.84;5075122;28;20016;-27
2022/07/21 05:20:14;;;;;;;3.50;3.15;;;;;;;30.76;38.26;97049.94;5075461;28;20029;-28
2022/07/21 05:22:40;;;;;;;5.40;3.13;;;;;;;30.73;38.29;97034.22;5075256;28;20097;-29
2022/07/21 05:25:06;;;;;;;5.15;2.75;;;;;;;30.77;37.97;97039.50;5074821;28;20129;-27
2022/07/21 05:27:32;;;;;;;4.18;3.05;;;;;;;30.76;38.48;97049.19;5075063;28;20031;-27
2022/07/21 05:29:58;;;;;;;4.75;3.03;;;;;;;30.76;38.02;97043.59;5075069;28;20104;-27
2022/07/21 05:32:23;;;;;;;3.97;3.05;;;;;;;30.76;37.99;97038.75;5074890;28;20032;-27
2022/07/21 05:34:49;;;;;;;3.65;2.95;;;;;;;30.74;38.52;97040.59;5074708;28;20023;-28
2022/07/21 05:37:14;;;;;;;4.25;3.00;;;;;;;30.73;38.40;97044.69;5074606;28;20028;-27
2022/07/21 05:39:40;;;;;;;7.03;2.83;;;;;;;30.74;38.28;97046.19;5074889;28;20100;-28
2022/07/21 05:42:06;;;;;;;4.88;3.45;;;;;;;30.73;38.54;97045.44;5074791;28;20024;-27
2022/07/21 05:44:31;;;;;;;6.07;3.28;;;;;;;30.70;38.59;97046.53;5074747;28;20037;-28
2022/07/21 05:46:57;;;;;;;4.75;3.50;;;;;;;30.75;38.48;97047.69;5074489;28;20027;-28
2022/07/21 05:49:23;;;;;;;3.80;2.80;;;;;;;30.71;38.49;97036.81;5074427;28;20085;-27
2022/07/21 05:51:48;;;;;;;6.68;3.30;;;;;;;30.71;38.08;97050.81;5074629;28;20024;-29
2022/07/21 05:54:14;;;;;;;4.03;2.90;;;;;;;30.69;38.68;97045.78;5074624;28;20025;-27
2022/07/21 05:56:40;;;;;;;6.57;3.08;;;;;;;30.70;38.42;97049.31;5074601;28;20036;-28
2022/07/21 05:59:05;;;;;;;5.35;3.15;;;;;;;30.68;38.42;97049.88;5074479;28;20021;-28
2022/07/21 06:01:31;;;;;;;3.22;3.00;;;;;;;30.65;38.38;97053.03;5074284;28;20036;-27
2022/07/21 06:03:56;;;;;;;4.03;3.28;;;;;;;30.71;38.56;97053.63;5074308;28;20473;-28
2022/07/21 06:06:23;;;;;;;4.38;3.05;;;;;;;30.68;38.22;97047.06;5072875;28;20036;-27
2022/07/21 06:08:48;;;;;;;5.00;2.88;;;;;;;30.66;38.84;97046.13;5074331;28;20120;-27
2022/07/21 06:11:17;;;;;;;4.15;2.80;;;;;;;30.65;38.34;97045.38;5074465;28;20496;-29
2022/07/21 06:13:42;;;;;;;3.67;2.80;;;;;;;30.67;38.81;97047.59;5074347;28;20059;-28
2022/07/21 06:16:08;;;;;;;6.20;3.33;;;;;;;30.71;38.64;97050.81;5075815;28;20130;-29
2022/07/21 06:18:34;;;;;;;3.50;2.88;;;;;;;30.69;38.78;97050.63;5088740;28;20034;-28
2022/07/21 06:21:00;;;;;;;5.65;2.88;;;;;;;30.67;38.44;97053.22;5089680;28;20386;-28
2022/07/21 06:23:27;;;;;;;5.80;3.05;;;;;;;30.68;38.24;97057.50;5072181;28;20024;-28
2022/07/21 06:25:53;;;;;;;4.20;2.97;;;;;;;30.69;38.09;97053.41;5072112;28;20032;-28
2022/07/21 06:28:19;;;;;;;5.32;3.30;;;;;;;30.66;38.51;97057.34;5071545;28;20468;-28
2022/07/21 06:30:45;;;;;;;3.08;2.85;;;;;;;30.66;38.37;97062.94;5071888;28;20025;-28
2022/07/21 06:33:11;;;;;;;4.20;3.40;;;;;;;30.74;38.09;97063.72;5074328;28;20035;-27
2022/07/21 06:35:38;;;;;;;3.58;2.80;;;;;;;30.66;38.94;97057.34;5092152;28;20393;-27
2022/07/21 06:38:04;;;;;;;4.03;2.75;;;;;;;30.63;39.11;97064.78;5091972;28;20374;-28
2022/07/21 06:40:29;;;;;;;3.55;2.40;;;;;;;30.67;39.00;97061.59;5091448;28;20036;-27
2022/07/21 06:42:55;;;;;;;3.40;2.90;;;;;;;30.63;38.96;97056.38;5091838;28;20032;-28
2022/07/21 06:45:21;;;;;;;3.90;2.78;;;;;;;30.68;38.82;97061.06;5091979;28;20067;-27
2022/07/21 06:47:47;;;;;;;2.88;2.55;;;;;;;30.67;38.41;97061.59;5089939;28;20456;-28
2022/07/21 06:50:13;;;;;;;3.38;2.90;;;;;;;30.67;38.53;97061.59;5089112;28;20035;-28
2022/07/21 06:52:38;;;;;;;2.97;2.65;;;;;;;30.69;38.73;97061.81;5070727;28;20024;-28
2022/07/21 06:55:06;;;;;;;3.20;2.90;;;;;;;30.70;38.42;97063.31;5071463;28;20032;-27
2022/07/21 06:57:33;;;;;;;3.80;2.97;;;;;;;30.69;38.36;97064.63;5071436;28;20024;-27
2022/07/21 06:59:59;;;;;;;3.65;2.65;;;;;;;30.66;38.79;97068.53;5071141;28;20093;-28
2022/07/21 07:02:24;;;;;;;2.70;2.50;;;;;;;30.61;39.10;97072.19;5087014;28;21764;-28
2022/07/21 07:04:50;;;;;;;3.38;2.60;;;;;;;30.66;38.62;97069.25;5077556;28;20470;-29
2022/07/21 07:07:15;;;;;;;3.25;2.67;;;;;;;30.67;38.88;97062.34;5071480;28;20062;-28
2022/07/21 07:09:41;;;;;;;3.17;2.88;;;;;;;30.69;38.73;97073.75;5077658;28;20082;-27
2022/07/21 07:12:08;;;;;;;3.75;2.67;;;;;;;30.67;38.41;97058.81;5090269;28;20035;-27
2022/07/21 07:14:35;;;;;;;2.70;2.50;;;;;;;30.68;38.86;97063.09;5091264;28;20052;-27
2022/07/21 07:17:02;;;;;;;2.80;2.60;;;;;;;30.68;38.76;97065.91;5089749;28;20477;-29
2022/07/21 07:19:28;;;;;;;3.70;3.40;;;;;;;30.66;38.68;97058.06;5091465;28;20394;-28
2022/07/21 07:21:54;;;;;;;3.78;2.33;;;;;;;30.70;38.35;97055.66;5091139;28;20031;-27
2022/07/21 07:24:19;;;;;;;4.65;3.10;;;;;;;30.65;38.67;97053.03;5090998;28;20024;-27
2022/07/21 07:26:45;;;;;;;3.22;2.70;;;;;;;30.49;39.09;97059.75;5090659;28;20028;-27
2022/07/21 07:29:11;;;;;;;3.10;2.83;;;;;;;30.61;38.61;97066.59;5085183;28;20048;-28
2022/07/21 07:31:37;;;;;;;3.17;2.65;;;;;;;30.61;38.35;97055.41;5070631;28;20028;-29
2022/07/21 07:34:03;;;;;;;2.92;2.72;;;;;;;30.66;38.08;97063.66;5070789;28;20043;-28
2022/07/21 07:36:29;;;;;;;3.35;2.97;;;;;;;30.61;38.68;97056.16;5070626;28;20028;-28
2022/07/21 07:38:56;;;;;;;3.25;2.95;;;;;;;30.61;38.27;97055.41;5070612;28;20031;-27
2022/07/21 07:41:24;;;;;;;4.03;2.92;;;;;;;30.66;37.95;97051.72;5070641;28;20028;-28
2022/07/21 07:43:51;;;;;;;3.42;2.80;;;;;;;30.66;38.44;97057.34;5070349;28;20086;-27
2022/07/21 07:46:18;;;;;;;7.13;2.88;;;;;;;29.50;40.09;97058.59;5077331;28;20028;-29
2022/07/21 07:48:44;;;;;;;3.78;3.17;;;;;;;30.05;38.87;97059.47;5090867;28;20041;-29
2022/07/21 07:51:11;;;;;;;3.63;3.00;;;;;;;30.27;38.30;97055.44;5079171;28;20059;-28
2022/07/21 07:53:36;;;;;;;4.53;3.20;;;;;;;30.17;38.70;97057.19;5071225;28;20029;-28
2022/07/21 07:56:02;;;;;;;4.35;2.97;;;;;;;30.38;38.19;97054.41;5072342;28;20017;-28
2022/07/21 07:58:28;;;;;;;4.55;3.30;;;;;;;30.29;37.83;97050.78;5070294;28;20091;-28
2022/07/21 08:00:53;;;;;;;4.53;2.90;;;;;;;30.23;38.40;97049.41;5076330;28;20025;-30
2022/07/21 08:03:19;;;;;;;3.38;3.08;;;;;;;30.15;38.75;97048.59;5076699;28;20024;-28
2022/07/21 08:05:45;;;;;;;2.97;2.78;;;;;;;30.23;38.12;97046.63;5076199;28;20103;-28
2022/07/21 08:08:11;;;;;;;3.78;3.08;;;;;;;30.30;38.07;97049.47;5076504;28;20429;-32
2022/07/21 08:10:36;;;;;;;5.07;3.00;;;;;;;30.41;37.48;97051.28;5076552;28;20049;-29
2022/07/21 08:13:02;;;;;;;3.97;3.67;;;;;;;30.16;37.65;97048.06;5076642;28;20021;-28
2022/07/21 08:15:27;;;;;;;5.57;3.15;;;;;;;30.31;37.81;97044.63;5076464;28;20036;-29
2022/07/21 08:17:53;;;;;;;4.70;3.17;;;;;;;29.96;38.75;97055.09;5076515;28;20386;-28
2022/07/21 08:20:18;;;;;;;4.72;3.90;;;;;;;30.06;38.74;97049.03;5076368;28;20036;-29
2022/07/21 08:22:44;;;;;;;3.85;3.40;;;;;;;30.20;38.04;97048.47;5076316;28;20017;-28
2022/07/21 08:25:09;;;;;;;7.15;3.67;;;;;;;30.23;38.09;97052.97;5076866;28;20023;-28
2022/07/21 08:27:35;;;;;;;3.60;3.30;;;;;;;30.35;37.55;97047.84;5076302;28;20032;-28
2022/07/21 08:30:00;;;;;;;5.78;3.47;;;;;;;30.13;37.83;97051.94;5076082;28;20118;-28
2022/07/21 08:32:26;;;;;;;5.47;3.33;;;;;;;30.04;37.88;97044.00;5076251;28;20027;-29
2022/07/21 08:34:51;;;;;;;4.57;3.53;;;;;;;30.24;37.26;97046.09;5076354;28;20032;-28
2022/07/21 08:37:19;;;;;;;7.32;3.50;;;;;;;30.34;37.50;97044.31;5076061;28;20075;-28
2022/07/21 08:39:47;;;;;;;5.15;3.42;;;;;;;30.37;37.63;97042.47;5076047;28;20054;-29
2022/07/21 08:42:14;;;;;;;3.90;3.60;;;;;;;30.29;37.44;97050.06;5076209;28;20205;-29
2022/07/21 08:44:39;;;;;;;5.40;4.07;;;;;;;30.16;36.59;97055.69;5076009;28;20029;-30
2022/07/21 08:47:05;;;;;;;5.10;3.78;;;;;;;30.27;36.90;97047.78;5074611;28;20024;-28
2022/07/21 08:49:36;;;;;;;4.22;3.83;;;;;;;30.40;37.26;97051.84;5074827;28;20035;-28
2022/07/21 08:52:05;;;;;;;5.65;3.70;;;;;;;30.38;36.75;97048.81;5075904;28;20037;-28
2022/07/21 08:54:32;;;;;;;4.32;3.63;;;;;;;30.39;36.82;97047.53;5075771;28;20063;-28
2022/07/21 08:56:57;;;;;;;4.88;4.15;;;;;;;30.23;36.45;97044.56;5075669;28;20028;-28
2022/07/21 08:59:23;;;;;;;7.10;3.65;;;;;;;30.27;36.94;97039.41;5075900;28;20035;-29
2022/07/21 09:01:49;;;;;;;6.22;3.75;;;;;;;30.33;36.79;97037.22;5075646;28;20016;-29
2022/07/21 09:04:28;;;;;;;6.80;4.22;;;;;;;30.26;36.75;97040.69;5075554;28;20489;-28
2022/07/21 09:07:02;;;;;;;4.25;3.17;;;;;;;30.24;36.82;97040.50;5075463;28;20059;-29
2022/07/21 09:09:30;;;;;;;5.93;3.97;;;;;;;30.28;37.34;97040.91;5075598;28;20048;-28
2022/07/21 09:11:57;;;;;;;4.43;3.70;;;;;;;30.19;36.79;97037.81;5074567;28;20111;-29
2022/07/21 09:14:30;;;;;;;4.32;3.92;;;;;;;30.11;35.83;97048.94;5075398;28;20025;-28
2022/07/21 09:16:58;;;;;;;7.18;4.32;;;;;;;30.25;36.68;97041.25;5075203;28;20543;-29
2022/07/21 09:19:33;;;;;;;4.70;4.30;;;;;;;30.26;36.70;97043.50;5075386;28;20418;-28
2022/07/21 09:22:03;;;;;;;4.25;3.85;;;;;;;30.27;36.39;97056.19;5075234;28;20052;-28
2022/07/21 09:24:40;;;;;;;3.63;3.33;;;;;;;30.34;36.63;97046.34;5075221;28;20032;-29
2022/07/21 09:27:14;;;;;;;5.72;4.15;;;;;;;30.14;36.49;97047.84;5075218;28;20020;-28
2022/07/21 09:29:49;;;;;;;4.43;3.90;;;;;;;30.14;36.91;97059.03;5075226;28;20052;-28
2022/07/21 09:32:16;;;;;;;6.13;4.78;;;;;;;30.01;36.93;97053.47;5075158;28;20060;-28
2022/07/21 09:34:47;;;;;;;5.10;3.92;;;;;;;30.18;36.86;97048.25;5075062;28;20086;-29
2022/07/21 09:37:12;;;;;;;4.60;4.20;;;;;;;30.16;36.69;97045.25;5075080;28;20024;-28
2022/07/21 09:39:42;;;;;;;4.78;4.30;;;;;;;30.27;36.41;97047.78;5075070;28;20020;-29
2022/07/21 09:42:30;;;;;;;6.07;4.28;;;;;;;30.25;36.37;97049.63;5075045;28;20375;-28
2022/07/21 09:45:01;;;;;;;6.88;4.82;;;;;;;30.20;35.46;97047.69;5074492;28;20039;-28
2022/07/21 09:47:30;;;;;;;5.75;5.25;;;;;;;30.26;36.20;97048.34;5074905;28;20027;-29
2022/07/21 09:49:57;;;;;;;7.28;4.47;;;;;;;30.28;36.07;97048.56;5079815;28;20024;-28
2022/07/21 09:52:29;;;;;;;5.45;5.05;;;;;;;30.24;35.74;97039.72;5093664;28;20020;-28
2022/07/21 09:54:58;;;;;;;5.05;4.55;;;;;;;30.24;35.59;97042.53;5093853;28;20028;-29
2022/07/21 09:57:24;;;;;;;4.90;4.40;;;;;;;30.22;35.54;97043.06;5095076;28;20051;-29
2022/07/21 09:59:51;;;;;;;6.85;4.88;;;;;;;30.20;35.54;97042.84;5094577;28;20019;-28
2022/07/21 10:02:29;;;;;;;6.97;4.70;;;;;;;30.24;35.15;97034.88;5095085;28;20497;-28
2022/07/21 10:05:05;;;;;;;5.78;4.97;;;;;;;30.34;34.81;97033.13;5093357;28;20407;-28
2022/07/21 10:07:32;;;;;;;5.45;4.65;;;;;;;30.18;34.48;97030.72;5093300;28;20077;-30
2022/07/21 10:09:58;;;;;;;8.32;5.10;;;;;;;30.21;34.51;97035.22;5094240;28;20063;-28
2022/07/21 10:12:26;;;;;;;5.63;4.55;;;;;;;30.14;34.43;97033.88;5094651;28;20031;-29
2022/07/21 10:14:52;;;;;;;6.63;5.25;;;;;;;30.24;34.47;97032.09;5094405;28;20032;-29
2022/07/21 10:17:19;;;;;;;5.72;4.90;;;;;;;30.23;34.58;97029.84;5094434;28;20030;-28
2022/07/21 10:20:11;;;;;;;5.50;5.00;;;;;;;30.18;34.17;97037.06;5094358;28;20024;-29
2022/07/21 10:23:11;;;;;;;5.22;4.72;;;;;;;30.29;33.95;97030.47;5093335;28;20020;-28
2022/07/21 10:25:38;;;;;;;5.90;4.90;;;;;;;30.26;33.71;97029.50;5094354;28;20378;-28
2022/07/21 10:28:17;;;;;;;6.43;5.82;;;;;;;30.31;33.60;97031.41;5094197;28;20032;-28
2022/07/21 10:30:45;;;;;;;5.70;5.10;;;;;;;30.32;33.85;97032.91;5094067;28;20016;-28
2022/07/21 10:33:12;;;;;;;6.35;5.15;;;;;;;30.22;33.55;97031.88;5094213;28;20032;-28
2022/07/21 10:35:43;;;;;;;5.70;5.20;;;;;;;30.25;33.08;97030.78;5093986;28;20611;-29
2022/07/21 10:38:28;;;;;;;7.65;5.72;;;;;;;30.24;32.99;97025.75;5093879;28;20024;-29
2022/07/21 10:40:54;;;;;;;5.82;5.32;;;;;;;30.22;33.11;97026.28;5093928;28;20027;-29
2022/07/21 10:43:26;;;;;;;6.93;5.30;;;;;;;30.10;32.69;97024.28;5093793;28;20394;-28
2022/07/21 10:45:53;;;;;;;7.15;5.45;;;;;;;29.98;32.79;97023.81;5094023;28;20089;-29
2022/07/21 10:48:36;;;;;;;5.70;5.18;;;;;;;30.00;32.58;97026.81;5093723;28;20038;-27
2022/07/21 10:51:09;;;;;;;5.50;4.97;;;;;;;30.04;31.92;97018.09;5093795;28;20023;-28
2022/07/21 10:53:35;;;;;;;5.57;5.03;;;;;;;30.00;32.65;97018.41;5093527;28;20034;-29
2022/07/21 10:56:01;;;;;;;6.70;5.30;;;;;;;30.23;32.02;97018.66;5093836;28;20473;-28
2022/07/21 10:58:31;;;;;;;6.63;5.00;;;;;;;30.12;31.58;97022.47;5093498;28;20097;-28
2022/07/21 11:01:19;;;;;;;6.22;5.47;;;;;;;30.08;32.25;97019.25;5093407;28;20101;-28
2022/07/21 11:03:45;;;;;;;5.97;5.38;;;;;;;30.11;31.57;97009.00;5093401;28;20109;-29
2022/07/21 11:06:29;;;;;;;5.85;4.93;;;;;;;30.12;31.84;97008.47;5093713;28;20412;-28
2022/07/21 11:09:04;;;;;;;6.88;5.28;;;;;;;30.23;31.63;97015.84;5093239;28;20050;-28
2022/07/21 11:11:35;;;;;;;5.82;5.00;;;;;;;30.19;31.77;97010.59;5093522;28;20035;-28
2022/07/21 11:14:08;;;;;;;5.53;5.03;;;;;;;30.12;31.77;97004.91;5093374;28;20056;-28
2022/07/21 11:16:40;;;;;;;5.70;4.78;;;;;;;30.04;32.04;97004.84;5091960;28;20028;-29
2022/07/21 11:19:26;;;;;;;5.50;4.45;;;;;;;30.09;32.04;97006.00;5093332;28;20031;-28
2022/07/21 11:21:52;;;;;;;5.60;5.00;;;;;;;30.10;31.84;97007.50;5092872;28;20517;-29
2022/07/21 11:24:20;;;;;;;6.07;4.78;;;;;;;30.01;32.30;97000.34;5093205;28;20036;-29
2022/07/21 11:27:02;;;;;;;6.35;4.82;;;;;;;30.04;32.36;96988.06;5093121;28;20028;-29
2022/07/21 11:29:29;;;;;;;7.32;4.82;;;;;;;30.13;32.33;96984.06;5092975;28;20051;-28
2022/07/21 11:31:56;;;;;;;7.50;5.10;;;;;;;30.13;32.75;96981.25;5093276;28;20032;-28
2022/07/21 11:34:23;;;;;;;6.38;4.88;;;;;;;30.14;32.81;96986.31;5092838;28;20027;-28
2022/07/21 11:36:58;;;;;;;5.63;5.00;;;;;;;30.17;32.96;96982.41;5092787;28;20016;-28